»·PEaware :: BADGR17 KEND-KEND

BADGR17 :: KEND-KEND

FLIGHT INFORMATION

Flight Status: Arrived
Operator: Unknown
More flights by this operator :: More flights under this callsign
Pilot: Stephen B. (22222)
Aircraft: BEECH AIRCRAFT T-6A TEXAN
(TEX2)
More flights by this aircraft type
Origin: KEND Vance AFB
United States
Destination: KEND Vance AFB
United States
More flights between these airports :: More routes between these airports
Route: AVK END9
File this flight plan on PilotEdge
Remarks:
Altitude:
(Current/Filed)
null
Speed:
(Current/Filed)
0kts
Departed: 05-Apr-21 11:06 AM
Arrived: 05-Apr-21 11:51 AM
Distance/Time
Traveled:
0nm/0:45
Distance/Time
To Go:
Arrived

Flight Plot

Page will automatically refresh every two minutes.

Flight plan parsing failed; only flown route is shown


Map Options




Map Legend


Flown Route
Filed Route
Departure Airport
Arrival Airport
Navaid (VOR, NDB)
Fix

Horizontal Profiles

Position Reports

Time Latitude Longitude Heading Altitude Ground
Speed
05-Apr-21 10:58 36.333664 -97.910052 87 1291ft 0kts
05-Apr-21 10:59 36.333664 -97.910052 87 1291ft 0kts
05-Apr-21 11:00 36.333664 -97.910052 87 1291ft 0kts
05-Apr-21 11:01 36.333664 -97.910052 87 1291ft 0kts
05-Apr-21 11:02 36.333664 -97.910052 87 1291ft 0kts
05-Apr-21 11:03 36.333770 -97.909895 297 1291ft 4kts
05-Apr-21 11:04 36.333392 -97.910683 243 1291ft 6kts
05-Apr-21 11:05 36.356124 -97.908930 9 1840ft 175kts
05-Apr-21 11:06 36.406772 -97.895238 7 4772ft 191kts
05-Apr-21 11:07 36.471856 -97.887688 333 5011ft 263kts
05-Apr-21 11:08 36.542446 -97.893346 2 5780ft 229kts
05-Apr-21 11:09 36.611928 -97.893141 325 5987ft 254kts
05-Apr-21 11:10 36.637510 -97.971473 279 5950ft 249kts
05-Apr-21 11:11 36.650226 -98.057498 280 6056ft 249kts
05-Apr-21 11:12 36.665676 -98.145142 282 4441ft 234kts
05-Apr-21 11:13 36.676442 -98.225336 278 4494ft 220kts
05-Apr-21 11:15 36.688240 -98.302019 282 4516ft 244kts
05-Apr-21 11:16 36.703694 -98.387956 282 4666ft 243kts
05-Apr-21 11:17 36.722535 -98.471220 288 4590ft 243kts
05-Apr-21 11:18 36.746272 -98.553055 290 4236ft 255kts
05-Apr-21 11:19 36.767229 -98.634744 283 3452ft 227kts
05-Apr-21 11:20 36.783996 -98.700543 23 3512ft 219kts
05-Apr-21 11:21 36.734282 -98.683431 186 2846ft 192kts
05-Apr-21 11:22 36.717282 -98.668214 356 2334ft 117kts
05-Apr-21 11:23 36.747051 -98.669758 356 1949ft 95kts
05-Apr-21 11:24 36.774210 -98.670302 357 1559ft 107kts
05-Apr-21 11:25 36.773486 -98.676561 185 3193ft 127kts
05-Apr-21 11:26 36.765820 -98.670469 357 1548ft 105kts
05-Apr-21 11:27 36.780580 -98.678100 187 3105ft 155kts
05-Apr-21 11:28 36.754850 -98.670748 8 2010ft 138kts
05-Apr-21 11:29 36.789587 -98.666548 45 2322ft 169kts
05-Apr-21 11:30 36.777079 -98.600615 94 3862ft 241kts
05-Apr-21 11:31 36.755753 -98.509794 106 3795ft 280kts
05-Apr-21 11:32 36.734403 -98.419073 110 3506ft 264kts
05-Apr-21 11:33 36.713636 -98.332877 107 3636ft 252kts
05-Apr-21 11:34 36.694316 -98.248749 102 3582ft 259kts
05-Apr-21 11:35 36.690795 -98.166582 93 6028ft 215kts
05-Apr-21 11:36 36.695288 -98.082386 88 6422ft 253kts
05-Apr-21 11:37 36.698579 -97.992306 87 6575ft 265kts
05-Apr-21 11:38 36.700670 -97.898198 92 6499ft 268kts
05-Apr-21 11:39 36.673472 -97.816355 168 6052ft 253kts
05-Apr-21 11:40 36.604183 -97.803148 174 6175ft 252kts
05-Apr-21 11:41 36.533575 -97.793932 178 6022ft 254kts
05-Apr-21 11:41 36.475274 -97.789483 182 6038ft 252kts
05-Apr-21 11:43 36.392861 -97.787377 185 5822ft 257kts
05-Apr-21 11:44 36.322244 -97.791682 188 5028ft 244kts
05-Apr-21 11:44 36.266240 -97.804144 204 4643ft 244kts
05-Apr-21 11:46 36.203388 -97.855886 269 2417ft 222kts
05-Apr-21 11:46 36.222821 -97.906746 357 2407ft 208kts
05-Apr-21 11:47 36.282976 -97.909900 356 2354ft 211kts
05-Apr-21 11:48 36.341848 -97.908214 49 2442ft 194kts
05-Apr-21 11:50 36.330222 -97.910955 0 1362ft 97kts
05-Apr-21 11:50 36.344735 -97.910989 0 1281ft 36kts

Navigation Log

Ident Type
Flight plan parsing failed, navigation log unavailable